createdAt,value
2018-06-08T00:00:35.241Z,50.54
2018-06-08T00:01:38.129Z,50.44
2018-06-08T00:02:39.433Z,50.34
2018-06-08T00:03:42.115Z,49.96
2018-06-08T00:04:43.499Z,50.34
2018-06-08T00:05:44.889Z,50.44
2018-06-08T00:06:46.283Z,50.34
2018-06-08T00:07:47.665Z,50.54
2018-06-08T00:08:49.717Z,50.34
2018-06-08T00:09:51.097Z,50.63
2018-06-08T00:10:52.491Z,50.73
2018-06-08T00:11:54.732Z,50.63
2018-06-08T00:12:56.123Z,50.54
2018-06-08T00:13:57.529Z,50.73
2018-06-08T00:14:58.917Z,50.82
2018-06-08T00:16:01.628Z,51.11
2018-06-08T00:17:03.199Z,51.21
2018-06-08T00:18:05.406Z,51.02
2018-06-08T00:19:06.797Z,51.02
2018-06-08T00:20:08.182Z,51.11
2018-06-08T00:21:09.574Z,51.21
2018-06-08T00:22:11.485Z,51.02
2018-06-08T00:23:12.872Z,51.11
2018-06-08T00:24:14.268Z,51.11
2018-06-08T00:25:15.642Z,51.31
2018-06-08T00:26:19.708Z,51.50
2018-06-08T00:27:21.087Z,51.79
2018-06-08T00:28:25.792Z,51.69
2018-06-08T00:29:27.187Z,51.79
2018-06-08T00:30:28.575Z,51.76
2018-06-08T00:31:31.382Z,51.98
2018-06-08T00:32:32.780Z,51.86
2018-06-08T00:33:34.174Z,51.88
2018-06-08T00:34:36.754Z,51.79
2018-06-08T00:35:38.133Z,51.69
2018-06-08T00:36:40.135Z,51.69
2018-06-08T00:37:40.866Z,51.67
2018-06-08T00:38:42.259Z,51.76
2018-06-08T00:39:43.645Z,51.95
2018-06-08T00:40:45.046Z,52.05
2018-06-08T00:41:47.236Z,52.05
2018-06-08T00:42:50.725Z,52.05
2018-06-08T00:43:52.786Z,51.86
2018-06-08T00:44:55.140Z,52.34
2018-06-08T00:45:56.140Z,52.53
2018-06-08T00:46:56.849Z,52.24
2018-06-08T00:47:58.239Z,52.34
2018-06-08T00:48:59.622Z,52.24
2018-06-08T00:50:01.552Z,52.34
2018-06-08T00:51:02.890Z,52.43
2018-06-08T00:52:04.286Z,52.62
2018-06-08T00:53:06.220Z,52.53
2018-06-08T00:54:07.598Z,52.91
2018-06-08T00:55:08.987Z,53.11
2018-06-08T00:56:10.372Z,53.01
2018-06-08T00:57:12.261Z,53.01
2018-06-08T00:58:14.268Z,53.30
2018-06-08T00:59:15.654Z,52.62
2018-06-08T01:00:17.917Z,53.20
2018-06-08T01:01:19.315Z,53.20
2018-06-08T01:02:20.703Z,53.11
2018-06-08T01:03:22.091Z,53.39
2018-06-08T01:04:24.823Z,53.30
2018-06-08T01:05:26.210Z,53.49
2018-06-08T01:06:27.604Z,53.49
2018-06-08T01:07:28.984Z,53.49
2018-06-08T01:08:30.377Z,53.36
2018-06-08T01:09:31.760Z,53.66
2018-06-08T01:10:34.048Z,53.49
2018-06-08T01:11:35.440Z,53.39
2018-06-08T01:12:36.832Z,53.75
2018-06-08T01:13:38.222Z,53.30
2018-06-08T01:14:39.607Z,53.75
2018-06-08T01:15:40.992Z,53.36
2018-06-08T01:16:43.109Z,53.75
2018-06-08T01:17:45.375Z,53.56
2018-06-08T01:18:46.761Z,53.46
2018-06-08T01:19:48.142Z,53.36
2018-06-08T01:20:49.526Z,53.85
2018-06-08T01:21:53.154Z,54.23
2018-06-08T01:22:53.858Z,53.94
2018-06-08T01:23:56.015Z,54.33
2018-06-08T01:24:57.396Z,54.04
2018-06-08T01:25:58.781Z,53.94
2018-06-08T01:27:00.170Z,54.71
2018-06-08T01:28:02.437Z,54.33
2018-06-08T01:29:03.831Z,54.52
2018-06-08T01:30:05.221Z,54.61
2018-06-08T01:31:06.596Z,54.13
2018-06-08T01:32:07.997Z,54.42
2018-06-08T01:33:09.375Z,54.71
2018-06-08T01:34:10.759Z,54.80
2018-06-08T01:35:12.789Z,54.71
2018-06-08T01:36:15.370Z,54.80
2018-06-08T01:37:16.757Z,54.52
2018-06-08T01:38:19.078Z,54.80
2018-06-08T01:39:21.299Z,55.29
2018-06-08T01:40:22.713Z,55.10
2018-06-08T01:41:24.123Z,54.90
2018-06-08T01:42:27.955Z,54.90
2018-06-08T01:43:29.332Z,55.10
2018-06-08T01:44:30.724Z,55.19
2018-06-08T01:45:32.118Z,55.00
2018-06-08T01:46:33.502Z,55.10
2018-06-08T01:47:34.892Z,55.00
2018-06-08T01:48:36.278Z,55.38
2018-06-08T01:49:38.652Z,55.19
2018-06-08T01:50:40.047Z,55.47
2018-06-08T01:51:41.426Z,55.38
2018-06-08T01:52:42.823Z,55.47
2018-06-08T01:53:44.224Z,55.38
2018-06-08T01:54:45.608Z,55.10
2018-06-08T01:55:46.998Z,55.16
2018-06-08T01:56:48.386Z,55.16
2018-06-08T01:57:49.778Z,55.16
2018-06-08T01:58:51.169Z,55.45
2018-06-08T01:59:52.550Z,55.16
2018-06-08T02:00:53.942Z,55.35
2018-06-08T02:01:55.939Z,55.26
2018-06-08T02:02:57.331Z,55.35
2018-06-08T02:03:58.722Z,55.35
2018-06-08T02:05:00.117Z,55.26
2018-06-08T02:06:02.591Z,55.83
2018-06-08T02:07:03.973Z,55.45
2018-06-08T02:08:05.357Z,55.93
2018-06-08T02:09:06.758Z,55.83
2018-06-08T02:10:08.144Z,55.83
2018-06-08T02:11:09.530Z,55.74
2018-06-08T02:12:10.918Z,55.64
2018-06-08T02:13:12.302Z,55.64
2018-06-08T02:14:13.686Z,55.74
2018-06-08T02:15:15.094Z,55.35
2018-06-08T02:16:16.482Z,55.74
2018-06-08T02:17:17.858Z,55.74
2018-06-08T02:18:19.248Z,55.74
2018-06-08T02:19:20.635Z,56.02
2018-06-08T02:20:22.031Z,55.83
2018-06-08T02:21:23.407Z,55.74
2018-06-08T02:22:24.794Z,56.02
2018-06-08T02:23:26.189Z,55.74
2018-06-08T02:24:27.632Z,55.64
2018-06-08T02:25:28.991Z,55.64
2018-06-08T02:26:30.374Z,55.45
2018-06-08T02:27:32.956Z,56.12
2018-06-08T02:28:34.345Z,55.83
2018-06-08T02:29:36.445Z,55.55
2018-06-08T02:30:37.834Z,56.60
2018-06-08T02:31:39.207Z,56.51
2018-06-08T02:32:40.598Z,56.12
2018-06-08T02:33:41.989Z,56.51
2018-06-08T02:34:43.386Z,56.51
2018-06-08T02:35:44.767Z,56.19
2018-06-08T02:36:46.150Z,56.19
2018-06-08T02:37:49.126Z,56.70
2018-06-08T02:38:51.251Z,56.22
2018-06-08T02:39:52.638Z,56.51
2018-06-08T02:40:54.030Z,56.41
2018-06-08T02:41:55.418Z,56.22
2018-06-08T02:42:56.817Z,56.51
2018-06-08T02:43:58.200Z,56.79
2018-06-08T02:45:00.285Z,57.06
2018-06-08T02:46:01.686Z,56.86
2018-06-08T02:47:03.063Z,57.06
2018-06-08T02:48:04.445Z,56.89
2018-06-08T02:49:05.831Z,56.96
2018-06-08T02:50:07.241Z,57.24
2018-06-08T02:51:08.635Z,57.15
2018-06-08T02:52:10.028Z,57.43
2018-06-08T02:53:11.431Z,57.15
2018-06-08T02:54:14.703Z,57.34
2018-06-08T02:55:16.977Z,57.34
2018-06-08T02:56:18.369Z,57.53
2018-06-08T02:57:20.939Z,57.34
2018-06-08T02:58:23.245Z,57.24
2018-06-08T02:59:24.640Z,57.24
2018-06-08T03:00:26.034Z,57.18
2018-06-08T03:01:27.415Z,57.56
2018-06-08T03:02:28.804Z,56.96
2018-06-08T03:03:30.199Z,56.79
2018-06-08T03:04:33.028Z,57.53
2018-06-08T03:05:34.424Z,57.24
2018-06-08T03:06:35.813Z,57.43
2018-06-08T03:07:37.201Z,57.28
2018-06-08T03:08:38.591Z,57.92
2018-06-08T03:09:39.985Z,57.72
2018-06-08T03:10:42.232Z,57.15
2018-06-08T03:11:44.425Z,57.63
2018-06-08T03:12:46.767Z,57.34
2018-06-08T03:13:48.164Z,57.82
2018-06-08T03:14:51.341Z,57.82
2018-06-08T03:15:52.731Z,57.92
2018-06-08T03:16:54.767Z,57.72
2018-06-08T03:17:56.151Z,57.72
2018-06-08T03:18:57.546Z,57.63
2018-06-08T03:19:58.933Z,57.92
2018-06-08T03:21:00.326Z,58.20
2018-06-08T03:22:01.706Z,57.72
2018-06-08T03:23:03.098Z,57.82
2018-06-08T03:24:04.494Z,57.72
2018-06-08T03:25:08.196Z,57.82
2018-06-08T03:26:08.902Z,58.01
2018-06-08T03:27:10.286Z,58.01
2018-06-08T03:28:13.819Z,58.11
2018-06-08T03:29:16.122Z,57.85
2018-06-08T03:30:18.206Z,57.92
2018-06-08T03:31:19.596Z,58.14
2018-06-08T03:32:20.976Z,58.04
2018-06-08T03:33:22.360Z,57.85
2018-06-08T03:34:24.240Z,57.95
2018-06-08T03:35:25.636Z,58.23
2018-06-08T03:36:27.013Z,58.23
2018-06-08T03:37:29.324Z,58.23
2018-06-08T03:38:31.617Z,58.04
2018-06-08T03:39:33.015Z,58.14
2018-06-08T03:40:35.387Z,57.75
2018-06-08T03:41:36.773Z,57.85
2018-06-08T03:42:38.163Z,57.37
2018-06-08T03:43:39.545Z,57.18
2018-06-08T03:44:41.703Z,57.46
2018-06-08T03:45:42.281Z,57.85
2018-06-08T03:46:44.585Z,56.98
2018-06-08T03:47:47.436Z,57.75
2018-06-08T03:48:49.335Z,57.75
2018-06-08T03:49:50.716Z,57.75
2018-06-08T03:50:52.095Z,57.85
2018-06-08T03:51:53.492Z,58.04
2018-06-08T03:52:54.897Z,58.04
2018-06-08T03:53:56.294Z,57.75
2018-06-08T03:54:58.595Z,56.98
2018-06-08T03:56:00.642Z,57.75
2018-06-08T03:57:01.988Z,57.75
2018-06-08T03:58:04.115Z,57.37
2018-06-08T03:59:06.346Z,57.50
2018-06-08T04:00:07.724Z,57.28
2018-06-08T04:01:09.600Z,57.30
2018-06-08T04:02:10.994Z,57.01
2018-06-08T04:03:12.384Z,57.01
2018-06-08T04:04:14.327Z,56.73
2018-06-08T04:05:15.715Z,56.44
2018-06-08T04:06:17.102Z,56.63
2018-06-08T04:07:19.208Z,56.63
2018-06-08T04:08:20.607Z,56.15
2018-06-08T04:09:21.989Z,55.79
2018-06-08T04:10:23.381Z,55.22
2018-06-08T04:11:24.770Z,55.51
2018-06-08T04:12:26.163Z,55.22
2018-06-08T04:13:27.559Z,54.83
2018-06-08T04:14:28.969Z,54.67
2018-06-08T04:15:30.375Z,54.77
2018-06-08T04:16:31.761Z,54.00
2018-06-08T04:17:34.748Z,54.02
2018-06-08T04:18:36.837Z,53.09
2018-06-08T04:19:38.225Z,51.74
2018-06-08T04:20:40.495Z,51.29
2018-06-08T04:21:41.891Z,50.51
2018-06-08T04:22:44.213Z,50.06
2018-06-08T04:23:44.634Z,50.25
2018-06-08T04:24:46.030Z,49.02
2018-06-08T04:25:47.482Z,48.44
2018-06-08T04:26:48.820Z,47.31
2018-06-08T04:27:50.746Z,46.93
2018-06-08T04:28:52.146Z,46.64
2018-06-08T04:29:53.539Z,46.64
2018-06-08T04:30:54.938Z,47.70
2018-06-08T04:31:56.330Z,47.60
2018-06-08T04:32:57.728Z,48.35
2018-06-08T04:33:59.122Z,48.16
2018-06-08T04:35:00.521Z,48.93
2018-06-08T04:36:02.785Z,48.66
2018-06-08T04:37:04.154Z,48.57
2018-06-08T04:38:05.559Z,47.60
2018-06-08T04:39:08.305Z,46.76
2018-06-08T04:40:10.245Z,46.30
2018-06-08T04:41:11.642Z,45.17
2018-06-08T04:42:13.925Z,44.90
2018-06-08T04:43:15.311Z,43.64
2018-06-08T04:44:16.717Z,43.06
2018-06-08T04:45:18.935Z,42.79
2018-06-08T04:46:20.323Z,42.97
2018-06-08T04:47:21.725Z,42.77
2018-06-08T04:48:23.119Z,43.04
2018-06-08T04:49:24.514Z,44.87
2018-06-08T04:50:26.706Z,44.85
2018-06-08T04:51:28.671Z,44.93
2018-06-08T04:52:30.072Z,45.99
2018-06-08T04:53:32.975Z,45.89
2018-06-08T04:54:34.361Z,46.28
2018-06-08T04:55:35.759Z,46.56
2018-06-08T04:56:37.161Z,46.47
2018-06-08T04:57:40.094Z,46.66
2018-06-08T04:58:41.522Z,46.76
2018-06-08T04:59:42.910Z,47.05
2018-06-08T05:00:44.315Z,47.05
2018-06-08T05:01:45.707Z,46.95
2018-06-08T05:02:47.101Z,46.49
2018-06-08T05:03:48.506Z,45.36
2018-06-08T05:04:50.412Z,45.36
2018-06-08T05:05:53.803Z,45.75
2018-06-08T05:06:58.590Z,45.75
2018-06-08T05:07:59.983Z,45.94
2018-06-08T05:09:01.375Z,45.92
2018-06-08T05:10:03.460Z,46.51
2018-06-08T05:11:04.858Z,46.78
2018-06-08T05:12:06.249Z,46.30
2018-06-08T05:13:07.641Z,47.07
2018-06-08T05:14:09.040Z,47.07
2018-06-08T05:15:10.432Z,46.97
2018-06-08T05:16:11.841Z,46.97
2018-06-08T05:17:13.246Z,47.17
2018-06-08T05:18:14.642Z,46.56
2018-06-08T05:19:16.041Z,47.14
2018-06-08T05:20:17.428Z,48.40
2018-06-08T05:21:20.664Z,47.34
2018-06-08T05:22:22.756Z,47.63
2018-06-08T05:23:24.158Z,47.92
2018-06-08T05:24:25.560Z,48.88
2018-06-08T05:25:26.958Z,49.27
2018-06-08T05:26:29.320Z,48.49
2018-06-08T05:27:30.705Z,48.69
2018-06-08T05:28:32.913Z,48.40
2018-06-08T05:29:34.303Z,48.97
2018-06-08T05:30:36.249Z,47.92
2018-06-08T05:31:37.988Z,47.72
2018-06-08T05:32:39.381Z,47.63
2018-06-08T05:33:40.782Z,48.11
2018-06-08T05:34:42.177Z,48.40
2018-06-08T05:35:44.075Z,47.82
2018-06-08T05:36:45.473Z,47.44
2018-06-08T05:37:46.871Z,47.72
2018-06-08T05:38:48.865Z,46.78
2018-06-08T05:39:50.266Z,46.78
2018-06-08T05:40:51.656Z,45.62
2018-06-08T05:41:53.559Z,45.43
2018-06-08T05:42:54.956Z,45.07
2018-06-08T05:43:56.349Z,43.72
2018-06-08T05:44:57.746Z,43.72
2018-06-08T05:45:59.136Z,43.91
2018-06-08T05:47:01.234Z,43.45
2018-06-08T05:48:02.639Z,42.87
2018-06-08T05:49:04.813Z,42.70
2018-06-08T05:50:07.936Z,42.41
2018-06-08T05:51:09.892Z,42.60
2018-06-08T05:52:11.288Z,42.41
2018-06-08T05:53:13.257Z,42.31
2018-06-08T05:54:14.095Z,42.31
2018-06-08T05:55:17.002Z,41.93
2018-06-08T05:56:19.194Z,41.73
2018-06-08T05:57:20.591Z,42.12
2018-06-08T05:58:21.998Z,42.50
2018-06-08T05:59:24.902Z,42.52
2018-06-08T06:00:26.305Z,41.94
2018-06-08T06:01:27.705Z,41.75
2018-06-08T06:02:29.101Z,41.66
2018-06-08T06:03:31.048Z,41.09
2018-06-08T06:04:33.107Z,40.71
2018-06-08T06:05:34.523Z,41.19
2018-06-08T06:06:36.649Z,40.52
2018-06-08T06:07:38.046Z,41.11
2018-06-08T06:08:40.848Z,40.92
2018-06-08T06:09:43.191Z,41.11
2018-06-08T06:10:45.385Z,40.84
2018-06-08T06:11:47.385Z,40.26
2018-06-08T06:12:48.780Z,39.97
2018-06-08T06:13:50.183Z,39.03
2018-06-08T06:14:51.604Z,38.93
2018-06-08T06:15:53.001Z,39.32
2018-06-08T06:16:54.403Z,39.61
2018-06-08T06:17:55.812Z,39.14
2018-06-08T06:18:57.221Z,38.07
2018-06-08T06:19:58.614Z,38.17
2018-06-08T06:21:00.051Z,37.69
2018-06-08T06:22:02.354Z,37.51
2018-06-08T06:23:04.765Z,37.61
2018-06-08T06:24:06.202Z,37.32
2018-06-08T06:25:07.608Z,37.41
2018-06-08T06:26:09.000Z,36.93
2018-06-08T06:27:10.403Z,36.56
2018-06-08T06:28:11.803Z,36.35
2018-06-08T06:29:13.198Z,36.93
2018-06-08T06:30:15.101Z,36.35
2018-06-08T06:31:16.519Z,36.25
2018-06-08T06:32:17.921Z,36.18
2018-06-08T06:33:19.886Z,35.96
2018-06-08T06:34:21.283Z,36.44
2018-06-08T06:35:23.287Z,36.54
2018-06-08T06:36:24.697Z,36.74
2018-06-08T06:37:26.094Z,36.44
2018-06-08T06:38:28.177Z,35.98
2018-06-08T06:39:29.574Z,36.08
2018-06-08T06:40:31.570Z,35.80
2018-06-08T06:41:32.963Z,36.29
2018-06-08T06:42:34.365Z,35.61
2018-06-08T06:43:36.354Z,35.33
2018-06-08T06:44:37.735Z,35.24
2018-06-08T06:45:39.134Z,35.63
2018-06-08T06:46:40.539Z,35.55
2018-06-08T06:47:43.329Z,34.67
2018-06-08T06:48:44.730Z,34.19
2018-06-08T06:49:46.124Z,34.66
2018-06-08T06:50:47.540Z,34.28
2018-06-08T06:51:48.934Z,34.56
2018-06-08T06:52:51.296Z,34.75
2018-06-08T06:53:52.425Z,34.28
2018-06-08T06:54:54.440Z,34.38
2018-06-08T06:55:55.833Z,34.11
2018-06-08T06:56:57.236Z,34.30
2018-06-08T06:57:58.637Z,33.72
2018-06-08T06:59:00.028Z,33.72
2018-06-08T07:00:01.427Z,33.53
2018-06-08T07:01:04.323Z,33.53
2018-06-08T07:02:05.713Z,34.40
2018-06-08T07:03:07.116Z,34.32
2018-06-08T07:04:09.973Z,33.34
2018-06-08T07:05:11.371Z,32.96
2018-06-08T07:06:13.699Z,32.78
2018-06-08T07:07:15.508Z,32.76
2018-06-08T07:08:16.914Z,32.86
2018-06-08T07:09:19.167Z,33.04
2018-06-08T07:10:20.571Z,33.25
2018-06-08T07:11:23.484Z,33.64
2018-06-08T07:12:24.894Z,33.25
2018-06-08T07:13:26.288Z,33.15
2018-06-08T07:14:27.688Z,32.86
2018-06-08T07:15:29.082Z,32.37
2018-06-08T07:16:30.488Z,32.67
2018-06-08T07:17:32.415Z,32.20
2018-06-08T07:18:33.806Z,32.00
2018-06-08T07:19:35.908Z,32.10
2018-06-08T07:20:37.308Z,32.29
2018-06-08T07:21:38.716Z,32.39
2018-06-08T07:22:40.522Z,32.39
2018-06-08T07:23:41.925Z,32.29
2018-06-08T07:24:43.332Z,32.10
2018-06-08T07:25:44.743Z,31.82
2018-06-08T07:26:46.151Z,31.90
2018-06-08T07:27:47.545Z,32.10
2018-06-08T07:28:48.971Z,32.10
2018-06-08T07:29:50.363Z,32.29
2018-06-08T07:30:51.771Z,32.68
2018-06-08T07:31:53.249Z,33.36
2018-06-08T07:32:54.565Z,32.20
2018-06-08T07:33:56.559Z,32.10
2018-06-08T07:34:58.656Z,31.41
2018-06-08T07:36:00.053Z,31.82
2018-06-08T07:37:02.258Z,32.02
2018-06-08T07:38:03.647Z,31.73
2018-06-08T07:39:05.054Z,31.73
2018-06-08T07:40:06.489Z,31.73
2018-06-08T07:41:08.813Z,32.20
2018-06-08T07:42:10.188Z,32.00
2018-06-08T07:43:12.820Z,32.10
2018-06-08T07:44:15.210Z,32.10
2018-06-08T07:45:16.612Z,32.21
2018-06-08T07:46:18.012Z,32.02
2018-06-08T07:47:19.417Z,31.73
2018-06-08T07:48:20.807Z,32.11
2018-06-08T07:49:22.220Z,31.53
2018-06-08T07:50:23.621Z,31.63
2018-06-08T07:51:25.921Z,32.10
2018-06-08T07:52:27.316Z,32.39
2018-06-08T07:53:28.724Z,32.70
2018-06-08T07:54:30.932Z,32.11
2018-06-08T07:55:32.332Z,31.73
2018-06-08T07:56:33.726Z,31.82
2018-06-08T07:57:35.120Z,32.21
2018-06-08T07:58:36.553Z,32.11
2018-06-08T07:59:37.937Z,32.40
2018-06-08T08:00:39.356Z,32.79
2018-06-08T08:01:41.599Z,32.21
2018-06-08T08:02:43.001Z,32.21
2018-06-08T08:03:44.945Z,32.03
2018-06-08T08:04:46.365Z,31.93
2018-06-08T08:05:50.207Z,31.06
2018-06-08T08:06:52.420Z,31.25
2018-06-08T08:07:54.945Z,31.45
2018-06-08T08:08:56.349Z,30.77
2018-06-08T08:09:57.754Z,31.25
2018-06-08T08:10:59.154Z,32.03
2018-06-08T08:12:00.559Z,32.13
2018-06-08T08:13:01.962Z,31.45
2018-06-08T08:14:03.357Z,31.85
2018-06-08T08:15:04.777Z,31.56
2018-06-08T08:16:06.173Z,30.68
2018-06-08T08:17:08.953Z,31.19
2018-06-08T08:18:10.342Z,31.19
2018-06-08T08:19:11.780Z,29.72
2018-06-08T08:20:13.856Z,29.33
2018-06-08T08:21:15.286Z,28.45
2018-06-08T08:22:16.696Z,26.90
2018-06-08T08:23:18.096Z,28.07
2018-06-08T08:24:19.494Z,27.09
2018-06-08T08:25:20.918Z,26.90
2018-06-08T08:26:22.321Z,26.90
2018-06-08T08:27:23.710Z,26.81
2018-06-08T08:28:25.119Z,26.42
2018-06-08T08:29:27.215Z,25.84
2018-06-08T08:30:30.446Z,25.45
2018-06-08T08:31:31.855Z,25.84
2018-06-08T08:32:34.222Z,26.03
2018-06-08T08:33:37.350Z,26.42
2018-06-08T08:34:38.513Z,26.12
2018-06-08T08:35:39.851Z,26.70
2018-06-08T08:36:41.919Z,27.19
2018-06-08T08:37:44.175Z,27.87
2018-06-08T08:38:45.582Z,27.68
2018-06-08T08:39:46.983Z,27.79
2018-06-08T08:40:48.386Z,26.91
2018-06-08T08:41:49.794Z,25.74
2018-06-08T08:42:51.198Z,24.28
2018-06-08T08:43:52.598Z,23.30
2018-06-08T08:44:54.016Z,23.29
2018-06-08T08:45:55.409Z,23.88
2018-06-08T08:46:56.803Z,24.46
2018-06-08T08:47:58.209Z,24.17
2018-06-08T08:49:00.539Z,24.56
2018-06-08T08:50:02.683Z,25.63
2018-06-08T08:51:04.091Z,25.04
2018-06-08T08:52:05.603Z,25.53
2018-06-08T08:53:06.881Z,25.63
2018-06-08T08:54:08.301Z,26.41
2018-06-08T08:55:10.473Z,26.51
2018-06-08T08:56:11.859Z,25.73
2018-06-08T08:57:13.260Z,25.84
2018-06-08T08:58:14.665Z,25.74
2018-06-08T08:59:16.083Z,25.07
2018-06-08T09:00:17.491Z,24.98
2018-06-08T09:01:18.902Z,25.46
2018-06-08T09:02:21.393Z,26.04
2018-06-08T09:03:22.812Z,26.34
2018-06-08T09:04:24.201Z,27.02
2018-06-08T09:05:25.606Z,26.82
2018-06-08T09:06:27.008Z,27.12
2018-06-08T09:07:29.204Z,27.02
2018-06-08T09:08:30.593Z,27.12
2018-06-08T09:09:32.000Z,27.31
2018-06-08T09:10:33.414Z,28.01
2018-06-08T09:11:36.370Z,27.52
2018-06-08T09:12:37.745Z,26.93
2018-06-08T09:13:39.140Z,26.84
2018-06-08T09:14:40.543Z,26.35
2018-06-08T09:15:41.931Z,25.96
2018-06-08T09:16:43.328Z,25.67
2018-06-08T09:17:44.746Z,25.67
2018-06-08T09:18:47.994Z,25.96
2018-06-08T09:19:52.374Z,25.57
2018-06-08T09:20:52.286Z,25.57
2018-06-08T09:21:54.335Z,25.57
2018-06-08T09:22:55.728Z,25.85
2018-06-08T09:23:57.138Z,25.86
2018-06-08T09:24:59.201Z,25.56
2018-06-08T09:26:00.609Z,26.42
2018-06-08T09:27:04.301Z,26.82
2018-06-08T09:28:05.705Z,26.82
2018-06-08T09:29:07.113Z,25.74
2018-06-08T09:30:08.519Z,25.82
2018-06-08T09:31:10.566Z,26.41
2018-06-08T09:32:11.970Z,25.92
2018-06-08T09:33:13.435Z,26.80
2018-06-08T09:34:14.794Z,26.80
2018-06-08T09:35:16.188Z,26.90
2018-06-08T09:36:18.075Z,27.58
2018-06-08T09:37:19.476Z,27.11
2018-06-08T09:38:20.874Z,26.32
2018-06-08T09:39:22.276Z,26.41
2018-06-08T09:40:23.678Z,27.09
2018-06-08T09:41:25.078Z,27.30
2018-06-08T09:42:26.480Z,26.91
2018-06-08T09:43:27.884Z,27.11
2018-06-08T09:44:29.323Z,26.91
2018-06-08T09:45:30.684Z,27.30
2018-06-08T09:46:32.093Z,26.81
2018-06-08T09:47:33.494Z,27.29
2018-06-08T09:48:34.894Z,27.68
2018-06-08T09:49:36.300Z,27.19
2018-06-08T09:50:38.985Z,28.18
2018-06-08T09:51:40.435Z,28.47
2018-06-08T09:52:41.833Z,28.88
2018-06-08T09:53:43.227Z,28.09
2018-06-08T09:54:45.551Z,27.90
2018-06-08T09:55:47.440Z,26.74
2018-06-08T09:56:50.477Z,27.03
2018-06-08T09:57:51.857Z,27.05
2018-06-08T09:58:53.996Z,27.03
2018-06-08T09:59:56.192Z,26.84
2018-06-08T10:00:57.598Z,26.82
2018-06-08T10:01:58.993Z,28.11
2018-06-08T10:03:00.396Z,27.13
2018-06-08T10:04:01.794Z,27.33
2018-06-08T10:05:03.641Z,27.72
2018-06-08T10:06:05.822Z,27.72
2018-06-08T10:07:07.235Z,27.81
2018-06-08T10:08:08.631Z,28.01
2018-06-08T10:09:10.047Z,27.52
2018-06-08T10:10:11.981Z,27.91
2018-06-08T10:11:13.398Z,28.00
2018-06-08T10:12:14.796Z,27.90
2018-06-08T10:13:16.188Z,27.90
2018-06-08T10:14:17.595Z,28.78
2018-06-08T10:15:18.990Z,28.78
2018-06-08T10:16:22.050Z,28.78
2018-06-08T10:17:23.451Z,28.58
2018-06-08T10:18:24.861Z,28.97
2018-06-08T10:19:26.265Z,28.78
2018-06-08T10:20:27.671Z,28.88
2018-06-08T10:21:29.649Z,29.47
2018-06-08T10:22:31.052Z,28.99
2018-06-08T10:23:32.463Z,28.50
2018-06-08T10:24:34.731Z,27.91
2018-06-08T10:25:36.131Z,27.83
2018-06-08T10:26:37.539Z,27.25
2018-06-08T10:27:38.941Z,27.03
2018-06-08T10:28:40.337Z,27.91
2018-06-08T10:29:42.507Z,28.01
2018-06-08T10:30:44.522Z,28.01
2018-06-08T10:31:45.922Z,27.52
2018-06-08T10:32:47.332Z,27.02
2018-06-08T10:33:48.723Z,27.52
2018-06-08T10:34:50.120Z,27.61
2018-06-08T10:35:51.526Z,28.30
2018-06-08T10:36:52.922Z,27.91
2018-06-08T10:37:54.331Z,27.52
2018-06-08T10:38:56.491Z,27.03
2018-06-08T10:39:57.934Z,27.13
2018-06-08T10:40:59.281Z,27.03
2018-06-08T10:42:00.686Z,25.96
2018-06-08T10:43:02.085Z,26.93
2018-06-08T10:44:03.493Z,26.54
2018-06-08T10:45:04.899Z,26.64
2018-06-08T10:46:07.726Z,27.03
2018-06-08T10:47:09.125Z,26.27
2018-06-08T10:48:10.526Z,26.66
2018-06-08T10:49:11.929Z,26.46
2018-06-08T10:50:13.971Z,25.37
2018-06-08T10:51:15.374Z,25.47
2018-06-08T10:52:17.284Z,25.47
2018-06-08T10:53:18.697Z,25.57
2018-06-08T10:54:21.559Z,25.47
2018-06-08T10:55:22.961Z,25.68
2018-06-08T10:56:24.369Z,25.76
2018-06-08T10:57:25.764Z,25.67
2018-06-08T10:58:28.999Z,25.57
2018-06-08T10:59:30.413Z,25.76
2018-06-08T11:00:31.785Z,25.56
2018-06-08T11:01:33.203Z,25.46
2018-06-08T11:02:35.516Z,25.46
2018-06-08T11:03:36.922Z,26.04
2018-06-08T11:04:38.319Z,25.86
2018-06-08T11:05:39.727Z,25.76
2018-06-08T11:06:42.100Z,25.67
2018-06-08T11:07:43.511Z,25.98
2018-06-08T11:08:44.911Z,25.68
2018-06-08T11:09:47.045Z,24.41
2018-06-08T11:10:48.452Z,24.50
2018-06-08T11:11:49.841Z,25.37
2018-06-08T11:12:51.244Z,25.37
2018-06-08T11:13:54.445Z,25.27
2018-06-08T11:14:54.823Z,26.06
2018-06-08T11:15:56.234Z,25.00
2018-06-08T11:16:57.623Z,24.79
2018-06-08T11:17:59.021Z,25.10
2018-06-08T11:19:01.198Z,24.80
2018-06-08T11:20:03.097Z,24.40
2018-06-08T11:21:04.502Z,24.99
2018-06-08T11:22:05.911Z,27.54
2018-06-08T11:23:07.311Z,30.45
2018-06-08T11:24:08.716Z,29.57
2018-06-08T11:25:10.107Z,30.57
2018-06-08T11:26:11.519Z,28.12
2018-06-08T11:27:12.925Z,29.10
2018-06-08T11:28:15.531Z,25.49
2018-06-08T11:29:17.788Z,25.01
2018-06-08T11:30:19.188Z,24.53
2018-06-08T11:31:21.507Z,24.15
2018-06-08T11:32:22.910Z,24.05
2018-06-08T11:33:24.306Z,23.27
2018-06-08T11:34:25.696Z,23.19
2018-06-08T11:35:27.104Z,22.41
2018-06-08T11:36:28.502Z,22.81
2018-06-08T11:37:29.897Z,21.45
2018-06-08T11:38:31.954Z,21.19
2018-06-08T11:39:33.375Z,20.41
2018-06-08T11:40:34.767Z,19.92
2018-06-08T11:41:36.174Z,20.41
2018-06-08T11:42:37.573Z,20.31
2018-06-08T11:43:39.672Z,20.22
2018-06-08T11:44:41.073Z,20.14
2018-06-08T11:45:42.480Z,19.46
2018-06-08T11:46:44.548Z,18.49
2018-06-08T11:47:45.944Z,18.40
2018-06-08T11:48:47.349Z,18.21
2018-06-08T11:49:48.748Z,17.93
2018-06-08T11:50:50.168Z,17.64
2018-06-08T11:51:51.573Z,17.06
2018-06-08T11:52:54.033Z,16.57
2018-06-08T11:53:55.435Z,16.38
2018-06-08T11:54:56.842Z,15.88
2018-06-08T11:55:58.246Z,16.87
2018-06-08T11:56:59.648Z,15.88
2018-06-08T11:58:01.052Z,16.26
2018-06-08T11:59:02.467Z,16.66
2018-06-08T12:00:03.876Z,16.57
2018-06-08T12:01:05.829Z,16.08
2018-06-08T12:02:07.888Z,16.38
2018-06-08T12:03:09.825Z,16.48
2018-06-08T12:04:11.232Z,16.09
2018-06-08T12:05:13.543Z,16.01
2018-06-08T12:06:14.953Z,15.43
2018-06-08T12:07:16.365Z,15.16
2018-06-08T12:08:17.784Z,14.27
2018-06-08T12:09:19.960Z,14.57
2018-06-08T12:10:21.383Z,14.28
2018-06-08T12:11:22.779Z,14.67
2018-06-08T12:12:24.983Z,14.56
2018-06-08T12:13:26.355Z,14.84
2018-06-08T12:14:28.207Z,15.04
2018-06-08T12:15:30.120Z,15.44
2018-06-08T12:16:32.067Z,15.84
2018-06-08T12:17:34.161Z,15.35
2018-06-08T12:18:35.577Z,15.26
2018-06-08T12:19:36.980Z,14.75
2018-06-08T12:20:38.371Z,15.17
2018-06-08T12:21:39.780Z,14.47
2018-06-08T12:22:41.196Z,14.76
2018-06-08T12:23:42.594Z,15.06
2018-06-08T12:24:44.006Z,14.77
2018-06-08T12:25:45.406Z,15.27
2018-06-08T12:26:48.046Z,15.06
2018-06-08T12:27:50.395Z,14.87
2018-06-08T12:28:51.806Z,15.45
2018-06-08T12:29:54.399Z,15.14
2018-06-08T12:30:55.809Z,16.13
2018-06-08T12:31:57.215Z,15.84
2018-06-08T12:32:58.628Z,16.22
2018-06-08T12:34:00.906Z,15.73
2018-06-08T12:35:03.699Z,15.73
2018-06-08T12:36:06.588Z,15.83
2018-06-08T12:37:08.493Z,15.84
2018-06-08T12:38:09.339Z,15.84
2018-06-08T12:39:10.741Z,16.03
2018-06-08T12:40:12.141Z,15.26
2018-06-08T12:41:14.475Z,15.46
2018-06-08T12:42:15.873Z,14.87
2018-06-08T12:43:18.028Z,14.66
2018-06-08T12:44:19.444Z,14.75
2018-06-08T12:45:21.501Z,15.15
2018-06-08T12:46:22.205Z,15.44
2018-06-08T12:47:23.594Z,16.41
2018-06-08T12:48:27.140Z,16.49
2018-06-08T12:49:29.242Z,17.16
2018-06-08T12:50:30.646Z,18.32
2018-06-08T12:51:32.051Z,18.99
2018-06-08T12:52:33.444Z,19.56
2018-06-08T12:53:35.503Z,20.33
2018-06-08T12:54:38.122Z,20.91
2018-06-08T12:55:39.565Z,21.39
2018-06-08T12:56:41.750Z,21.56
2018-06-08T12:57:43.651Z,22.52
2018-06-08T12:58:45.048Z,23.20
2018-06-08T12:59:46.449Z,23.59
2018-06-08T13:00:47.847Z,23.98
2018-06-08T13:01:49.246Z,23.97
2018-06-08T13:02:50.641Z,23.77
2018-06-08T13:03:52.047Z,23.97
2018-06-08T13:04:54.016Z,24.37
2018-06-08T13:05:54.826Z,24.16
2018-06-08T13:06:57.727Z,24.16
2018-06-08T13:07:59.127Z,24.55
2018-06-08T13:09:01.164Z,24.85
2018-06-08T13:10:02.566Z,25.15
2018-06-08T13:11:04.617Z,24.26
2018-06-08T13:12:06.027Z,24.16
2018-06-08T13:13:07.422Z,23.94
2018-06-08T13:14:09.368Z,24.63